Wednesday, November 26, 2014
04:04 UTC
  |  Log In   |  Register Free
Airport Search:

Lincoln Airport
(KLNK)

FAA data valid effective November 13, 2014 - January 08, 2015 (unless otherwise noted).

 
 
 
 
 
 
 
 
 
 
 
 
 
 

Current Aviation Weather for Lincoln Airport (KLNK)

The most recent METAR observation for KLNK was updated at: 0333
METAR Summary (Translated METAR)
KLNK
260254Z 16008KT 10SM OVC085 06/M04 A2988 RMK AO2 SLP129 T00561039 58019
KAHQ
260255Z AUTO 14009KT 10SM OVC070 05/M03 A2986 RMK AO2 T00451031
(24.6 nm NE from KLNK)
KBIE
260255Z AUTO 17010G16KT 10SM OVC085 06/M03 A2989 RMK AO2 T00551035
(33 nm SE from KLNK)
TAF Summary (Translated TAF)
KLNK
251727Z 2518/2618 21011KT P6SM BKN250 FM260000 17010KT P6SM OVC050 PROB30 2604/2607 24010KT 5SM -RASN OVC025 FM260700 31019G25KT P6SM BKN025
  Airport Weather Conditions for KLNK

 Current Weather at LNK
42° F
Overcast
South winds at 9.2 mph
LNK NOAA Radar

Pressure: 29.88 in
Humidity: 51%
Wind: South at 9.2 MPH (8 KT)
Dew Point: 25.0°F
Visibility: 10.00 mi


Airport Weather Forecast for KLNK

Translated METAR and TAF for KLNK
Translated METAR for KLNK (0359 UTC 26 November 2014)
found at http://aviationweather.gov/adds/metars/
 
METAR text: KLNK 260354Z 18016G22KT 10SM OVC065 06/M04 A2985 RMK AO2 SLP118 T00611039
Conditions at: KLNK (LINCOLN , NE, US) observed 0354 UTC 26 November 2014
Temperature: 6.1°C (43°F)
Dewpoint: -3.9°C (25°F) [RH = 49%]
Pressure (altimeter): 29.85 inches Hg (1010.9 mb)
[Sea-level pressure: 1011.8 mb]
Winds: from the S (180 degrees) at 18 MPH (16 knots; 8.3 m/s)
gusting to 25 MPH (22 knots; 11.4 m/s)
Visibility: 10 or more miles (16+ km)
Ceiling: 6500 feet AGL
Clouds: overcast cloud deck at 6500 feet AGL
Weather: no significant weather observed at this time
Translated TAF for KLNK
Forecast for: KLNK (LINCOLN , NE, US)
TAF Text: KLNK 252327Z 2600/2624 18008KT P6SM OVC110
Forecast period: 0000 to 0700 UTC 26 November 2014
Forecast type: FROM: standard forecast or significant change
Winds: from the S (180 degrees) at 9 MPH (8 knots; 4.2 m/s)
Visibility: 6 or more miles (10+ km)
Ceiling: 11000 feet AGL
Clouds: overcast cloud deck at 11000 feet AGL
Weather: no significant weather forecast for this period
TAF Text: FM260700 31019G25KT P6SM BKN025
Forecast period: 0700 to 1200 UTC 26 November 2014
Forecast type: FROM: standard forecast or significant change
Winds: from the NW (310 degrees) at 22 MPH (19 knots; 9.9 m/s)
gusting to 29 MPH (25 knots; 13.0 m/s)
Visibility: 6 or more miles (10+ km)
Ceiling: 2500 feet AGL
Clouds: broken clouds at 2500 feet AGL
Weather: no significant weather forecast for this period
TAF Text: FM261200 33020G29KT P6SM OVC020
Forecast period: 1200 UTC 26 November 2014 to 0000 UTC 27 November 2014
Forecast type: FROM: standard forecast or significant change
Winds: from the NNW (330 degrees) at 23 MPH (20 knots; 10.4 m/s)
gusting to 33 MPH (29 knots; 15.1 m/s)
Visibility: 6 or more miles (10+ km)
Ceiling: 2000 feet AGL
Clouds: overcast cloud deck at 2000 feet AGL
Weather: no significant weather forecast for this period

Find All Airport Services Find A Hotel Find A Rental Car Find A Golf Course Find A Restaurant $100 Hamburger



FBO's on the Field
FBO Company Facility Photos Services Transportation Aviation Fuel Prices: Prices include tax
Catering Weather Repair Courtesy Rental Type 100LL JetA JetA+ MOGAS 8087
 
Duncan Aviation

This FBO has not yet been rated
FS:Avfuel
Last Updated: Nov-25
Login to update fuel prices
SS:
Contact Duncan AviationMore FBO Information
 
Silverhawk Aviation

This FBO has not yet been rated
FS:Phillips 66
Last Updated: Nov-25
Login to update fuel prices
SS:
Contact Silverhawk AviationMore FBO Information
 
Add another FBO Facility Photos Catering Weather Repair Courtesy Rental Type 100LL JetA JetA+ MOGAS 8087
Services Transportation Aviation Fuel Prices: Prices include tax


model-print
model-print
model-print
model-print